sensor_id;sensor_type;location;lat;lon;timestamp;pressure;altitude;pressure_sealevel;temperature
29701;BMP280;57917;51.380;-0.176;2023-04-03T00:05:39;102733.94;;;4.81
29701;BMP280;57917;51.380;-0.176;2023-04-03T00:11:56;102737.28;;;4.61
29701;BMP280;57917;51.380;-0.176;2023-04-03T00:18:02;102738.38;;;4.52
29701;BMP280;57917;51.380;-0.176;2023-04-03T00:29:52;102732.38;;;4.72
29701;BMP280;57917;51.380;-0.176;2023-04-03T00:35:45;102730.47;;;4.95
29701;BMP280;57917;51.380;-0.176;2023-04-03T00:41:58;102724.94;;;4.90
29701;BMP280;57917;51.380;-0.176;2023-04-03T00:48:00;102722.72;;;4.58
29701;BMP280;57917;51.380;-0.176;2023-04-03T00:54:08;102718.97;;;4.53
29701;BMP280;57917;51.380;-0.176;2023-04-03T01:15:01;102739.25;;;4.29
29701;BMP280;57917;51.380;-0.176;2023-04-03T01:27:16;102735.63;;;4.30
29701;BMP280;57917;51.380;-0.176;2023-04-03T01:33:06;102731.09;;;4.24
29701;BMP280;57917;51.380;-0.176;2023-04-03T01:39:11;102727.72;;;4.16
29701;BMP280;57917;51.380;-0.176;2023-04-03T01:45:14;102727.94;;;4.29
29701;BMP280;57917;51.380;-0.176;2023-04-03T01:51:30;102726.47;;;4.26
29701;BMP280;57917;51.380;-0.176;2023-04-03T02:04:28;102724.56;;;4.35
29701;BMP280;57917;51.380;-0.176;2023-04-03T02:10:53;102725.41;;;4.35
29701;BMP280;57917;51.380;-0.176;2023-04-03T02:17:02;102726.94;;;4.44
29701;BMP280;57917;51.380;-0.176;2023-04-03T02:23:12;102735.34;;;4.40
29701;BMP280;57917;51.380;-0.176;2023-04-03T02:29:32;102725.97;;;4.46
29701;BMP280;57917;51.380;-0.176;2023-04-03T02:36:07;102732.38;;;4.43
29701;BMP280;57917;51.380;-0.176;2023-04-03T02:42:46;102721.47;;;4.02
29701;BMP280;57917;51.380;-0.176;2023-04-03T02:49:35;102720.84;;;3.92
29701;BMP280;57917;51.380;-0.176;2023-04-03T02:55:45;102721.22;;;4.12
29701;BMP280;57917;51.380;-0.176;2023-04-03T03:01:58;102715.34;;;4.10
29701;BMP280;57917;51.380;-0.176;2023-04-03T03:08:13;102722.13;;;4.19
29701;BMP280;57917;51.380;-0.176;2023-04-03T03:14:28;102708.66;;;4.22
29701;BMP280;57917;51.380;-0.176;2023-04-03T03:21:04;102704.28;;;4.00
29701;BMP280;57917;51.380;-0.176;2023-04-03T03:27:30;102706.53;;;4.03
29701;BMP280;57917;51.380;-0.176;2023-04-03T03:33:59;102707.66;;;3.86
29701;BMP280;57917;51.380;-0.176;2023-04-03T03:47:01;102700.50;;;3.80
29701;BMP280;57917;51.380;-0.176;2023-04-03T03:53:20;102702.34;;;3.71
29701;BMP280;57917;51.380;-0.176;2023-04-03T03:59:46;102705.69;;;3.65
29701;BMP280;57917;51.380;-0.176;2023-04-03T04:06:13;102702.84;;;3.75
29701;BMP280;57917;51.380;-0.176;2023-04-03T04:12:06;102699.03;;;3.63
29701;BMP280;57917;51.380;-0.176;2023-04-03T04:18:14;102691.63;;;3.43
29701;BMP280;57917;51.380;-0.176;2023-04-03T04:24:31;102695.78;;;3.53
29701;BMP280;57917;51.380;-0.176;2023-04-03T04:30:45;102701.38;;;3.49
29701;BMP280;57917;51.380;-0.176;2023-04-03T04:37:20;102696.56;;;3.30
29701;BMP280;57917;51.380;-0.176;2023-04-03T04:43:14;102691.00;;;3.33
29701;BMP280;57917;51.380;-0.176;2023-04-03T04:49:39;102690.69;;;3.28
29701;BMP280;57917;51.380;-0.176;2023-04-03T04:55:47;102705.72;;;3.34
29701;BMP280;57917;51.380;-0.176;2023-04-03T05:01:58;102716.81;;;3.44
29701;BMP280;57917;51.380;-0.176;2023-04-03T05:08:16;102716.72;;;3.53
29701;BMP280;57917;51.380;-0.176;2023-04-03T05:14:32;102708.88;;;3.53
29701;BMP280;57917;51.380;-0.176;2023-04-03T05:21:11;102704.97;;;3.48
29701;BMP280;57917;51.380;-0.176;2023-04-03T05:28:21;102709.13;;;3.43
29701;BMP280;57917;51.380;-0.176;2023-04-03T05:34:50;102724.94;;;3.72
29701;BMP280;57917;51.380;-0.176;2023-04-03T05:40:50;102729.44;;;3.64
29701;BMP280;57917;51.380;-0.176;2023-04-03T05:46:47;102719.13;;;3.85
29701;BMP280;57917;51.380;-0.176;2023-04-03T05:52:43;102729.34;;;3.94
29701;BMP280;57917;51.380;-0.176;2023-04-03T05:58:59;102729.63;;;4.22
29701;BMP280;57917;51.380;-0.176;2023-04-03T06:04:50;102725.63;;;4.11
29701;BMP280;57917;51.380;-0.176;2023-04-03T06:10:49;102731.28;;;4.23
29701;BMP280;57917;51.380;-0.176;2023-04-03T06:16:49;102745.50;;;4.43
29701;BMP280;57917;51.380;-0.176;2023-04-03T06:22:39;102743.06;;;4.56
29701;BMP280;57917;51.380;-0.176;2023-04-03T06:28:26;102764.31;;;4.76
29701;BMP280;57917;51.380;-0.176;2023-04-03T06:34:13;102765.50;;;4.73
29701;BMP280;57917;51.380;-0.176;2023-04-03T06:40:04;102743.72;;;4.87
29701;BMP280;57917;51.380;-0.176;2023-04-03T06:45:52;102747.06;;;4.67
29701;BMP280;57917;51.380;-0.176;2023-04-03T06:51:42;102755.88;;;5.09
29701;BMP280;57917;51.380;-0.176;2023-04-03T06:57:31;102734.09;;;5.30
29701;BMP280;57917;51.380;-0.176;2023-04-03T07:03:19;102748.84;;;5.46
29701;BMP280;57917;51.380;-0.176;2023-04-03T07:09:07;102734.81;;;5.60
29701;BMP280;57917;51.380;-0.176;2023-04-03T07:14:55;102730.81;;;5.64
29701;BMP280;57917;51.380;-0.176;2023-04-03T07:20:42;102730.69;;;5.51
29701;BMP280;57917;51.380;-0.176;2023-04-03T07:26:31;102739.66;;;5.84
29701;BMP280;57917;51.380;-0.176;2023-04-03T07:32:37;102725.13;;;6.09
29701;BMP280;57917;51.380;-0.176;2023-04-03T07:38:36;102731.56;;;6.68
29701;BMP280;57917;51.380;-0.176;2023-04-03T07:44:38;102733.50;;;8.95
29701;BMP280;57917;51.380;-0.176;2023-04-03T07:51:46;102718.81;;;10.04
29701;BMP280;57917;51.380;-0.176;2023-04-03T07:57:41;102724.84;;;10.47
29701;BMP280;57917;51.380;-0.176;2023-04-03T08:03:29;102717.22;;;11.21
29701;BMP280;57917;51.380;-0.176;2023-04-03T08:09:18;102731.22;;;11.63
29701;BMP280;57917;51.380;-0.176;2023-04-03T08:15:07;102705.41;;;11.70
29701;BMP280;57917;51.380;-0.176;2023-04-03T08:21:10;102707.78;;;12.06
29701;BMP280;57917;51.380;-0.176;2023-04-03T08:27:27;102707.59;;;11.61
29701;BMP280;57917;51.380;-0.176;2023-04-03T08:34:00;102714.84;;;11.77
29701;BMP280;57917;51.380;-0.176;2023-04-03T08:40:26;102716.06;;;11.98
29701;BMP280;57917;51.380;-0.176;2023-04-03T08:47:27;102717.97;;;11.86
29701;BMP280;57917;51.380;-0.176;2023-04-03T08:53:34;102713.69;;;12.64
29701;BMP280;57917;51.380;-0.176;2023-04-03T08:59:29;102715.31;;;13.15
29701;BMP280;57917;51.380;-0.176;2023-04-03T09:05:40;102707.84;;;12.50
29701;BMP280;57917;51.380;-0.176;2023-04-03T09:12:00;102706.97;;;12.05
29701;BMP280;57917;51.380;-0.176;2023-04-03T09:18:08;102711.91;;;12.41
29701;BMP280;57917;51.380;-0.176;2023-04-03T09:24:01;102682.25;;;12.61
29701;BMP280;57917;51.380;-0.176;2023-04-03T09:29:54;102685.69;;;11.31
29701;BMP280;57917;51.380;-0.176;2023-04-03T09:35:41;102675.44;;;11.35
29701;BMP280;57917;51.380;-0.176;2023-04-03T09:41:37;102679.00;;;11.40
29701;BMP280;57917;51.380;-0.176;2023-04-03T09:59:16;102665.16;;;10.62
29701;BMP280;57917;51.380;-0.176;2023-04-03T10:05:23;102674.19;;;10.55
29701;BMP280;57917;51.380;-0.176;2023-04-03T10:11:17;102671.75;;;10.83
29701;BMP280;57917;51.380;-0.176;2023-04-03T10:17:31;102677.91;;;10.54
29701;BMP280;57917;51.380;-0.176;2023-04-03T10:36:38;102694.38;;;10.38
29701;BMP280;57917;51.380;-0.176;2023-04-03T10:42:55;102669.34;;;10.52
29701;BMP280;57917;51.380;-0.176;2023-04-03T10:49:05;102668.47;;;11.10
29701;BMP280;57917;51.380;-0.176;2023-04-03T11:07:39;102669.59;;;10.91
29701;BMP280;57917;51.380;-0.176;2023-04-03T11:13:43;102661.91;;;11.36
29701;BMP280;57917;51.380;-0.176;2023-04-03T11:19:41;102646.94;;;11.18
29701;BMP280;57917;51.380;-0.176;2023-04-03T11:25:35;102655.69;;;11.30
29701;BMP280;57917;51.380;-0.176;2023-04-03T11:37:51;102645.66;;;11.09
29701;BMP280;57917;51.380;-0.176;2023-04-03T11:43:55;102621.09;;;11.14
29701;BMP280;57917;51.380;-0.176;2023-04-03T12:01:49;102597.72;;;11.34
29701;BMP280;57917;51.380;-0.176;2023-04-03T12:07:42;102602.88;;;11.29
29701;BMP280;57917;51.380;-0.176;2023-04-03T12:39:36;102573.53;;;11.59
29701;BMP280;57917;51.380;-0.176;2023-04-03T12:51:40;102549.75;;;12.03
29701;BMP280;57917;51.380;-0.176;2023-04-03T12:57:38;102560.22;;;11.82
29701;BMP280;57917;51.380;-0.176;2023-04-03T13:03:30;102541.06;;;11.80
29701;BMP280;57917;51.380;-0.176;2023-04-03T13:09:24;102556.22;;;11.96
29701;BMP280;57917;51.380;-0.176;2023-04-03T13:15:44;102538.06;;;12.04
29701;BMP280;57917;51.380;-0.176;2023-04-03T13:21:34;102540.47;;;11.89
29701;BMP280;57917;51.380;-0.176;2023-04-03T13:27:22;102539.13;;;11.75
29701;BMP280;57917;51.380;-0.176;2023-04-03T13:33:23;102517.22;;;11.96
29701;BMP280;57917;51.380;-0.176;2023-04-03T13:57:01;102523.25;;;12.08
29701;BMP280;57917;51.380;-0.176;2023-04-03T14:02:48;102490.41;;;11.81
29701;BMP280;57917;51.380;-0.176;2023-04-03T14:08:35;102489.94;;;12.01
29701;BMP280;57917;51.380;-0.176;2023-04-03T14:14:31;102484.63;;;11.56
29701;BMP280;57917;51.380;-0.176;2023-04-03T14:20:23;102479.44;;;11.61
29701;BMP280;57917;51.380;-0.176;2023-04-03T14:26:16;102481.66;;;11.81
29701;BMP280;57917;51.380;-0.176;2023-04-03T14:32:05;102471.75;;;11.76
29701;BMP280;57917;51.380;-0.176;2023-04-03T14:38:00;102469.78;;;11.55
29701;BMP280;57917;51.380;-0.176;2023-04-03T14:43:48;102485.41;;;11.68
29701;BMP280;57917;51.380;-0.176;2023-04-03T14:49:40;102482.69;;;11.52
29701;BMP280;57917;51.380;-0.176;2023-04-03T14:55:32;102460.91;;;11.50
29701;BMP280;57917;51.380;-0.176;2023-04-03T15:01:19;102465.41;;;11.09
29701;BMP280;57917;51.380;-0.176;2023-04-03T15:07:10;102458.72;;;11.18
29701;BMP280;57917;51.380;-0.176;2023-04-03T15:13:00;102431.47;;;11.51
29701;BMP280;57917;51.380;-0.176;2023-04-03T15:18:50;102436.41;;;11.31
29701;BMP280;57917;51.380;-0.176;2023-04-03T15:24:37;102404.50;;;11.14
29701;BMP280;57917;51.380;-0.176;2023-04-03T15:30:28;102418.44;;;10.93
29701;BMP280;57917;51.380;-0.176;2023-04-03T15:36:15;102413.47;;;11.25
29701;BMP280;57917;51.380;-0.176;2023-04-03T15:42:20;102414.69;;;11.06
29701;BMP280;57917;51.380;-0.176;2023-04-03T15:48:08;102420.91;;;11.00
29701;BMP280;57917;51.380;-0.176;2023-04-03T15:53:55;102425.19;;;11.01
29701;BMP280;57917;51.380;-0.176;2023-04-03T15:59:43;102428.06;;;11.11
29701;BMP280;57917;51.380;-0.176;2023-04-03T16:05:38;102407.38;;;10.85
29701;BMP280;57917;51.380;-0.176;2023-04-03T16:11:31;102421.34;;;10.57
29701;BMP280;57917;51.380;-0.176;2023-04-03T16:17:19;102427.66;;;10.45
29701;BMP280;57917;51.380;-0.176;2023-04-03T16:23:42;102446.06;;;10.51
29701;BMP280;57917;51.380;-0.176;2023-04-03T16:29:34;102444.69;;;10.37
29701;BMP280;57917;51.380;-0.176;2023-04-03T16:35:39;102444.00;;;10.30
29701;BMP280;57917;51.380;-0.176;2023-04-03T16:41:32;102445.94;;;10.35
29701;BMP280;57917;51.380;-0.176;2023-04-03T16:47:24;102426.50;;;10.29
29701;BMP280;57917;51.380;-0.176;2023-04-03T16:53:14;102401.13;;;9.98
29701;BMP280;57917;51.380;-0.176;2023-04-03T16:59:03;102427.25;;;9.95
29701;BMP280;57917;51.380;-0.176;2023-04-03T17:04:51;102439.22;;;9.98
29701;BMP280;57917;51.380;-0.176;2023-04-03T17:10:38;102455.53;;;9.65
29701;BMP280;57917;51.380;-0.176;2023-04-03T17:16:33;102446.38;;;9.49
29701;BMP280;57917;51.380;-0.176;2023-04-03T17:22:25;102443.41;;;9.57
29701;BMP280;57917;51.380;-0.176;2023-04-03T17:28:23;102464.16;;;9.24
29701;BMP280;57917;51.380;-0.176;2023-04-03T17:34:43;102453.06;;;8.98
29701;BMP280;57917;51.380;-0.176;2023-04-03T17:40:36;102457.91;;;9.01
29701;BMP280;57917;51.380;-0.176;2023-04-03T17:46:24;102434.28;;;8.88
29701;BMP280;57917;51.380;-0.176;2023-04-03T17:52:15;102432.06;;;8.85
29701;BMP280;57917;51.380;-0.176;2023-04-03T17:58:03;102442.47;;;8.55
29701;BMP280;57917;51.380;-0.176;2023-04-03T18:03:54;102451.66;;;8.77
29701;BMP280;57917;51.380;-0.176;2023-04-03T18:09:45;102445.69;;;8.57
29701;BMP280;57917;51.380;-0.176;2023-04-03T18:15:33;102467.88;;;8.25
29701;BMP280;57917;51.380;-0.176;2023-04-03T18:21:20;102464.22;;;8.26
29701;BMP280;57917;51.380;-0.176;2023-04-03T18:27:12;102453.03;;;7.93
29701;BMP280;57917;51.380;-0.176;2023-04-03T18:33:03;102449.03;;;7.84
29701;BMP280;57917;51.380;-0.176;2023-04-03T18:38:51;102456.47;;;7.55
29701;BMP280;57917;51.380;-0.176;2023-04-03T18:44:42;102460.56;;;7.38
29701;BMP280;57917;51.380;-0.176;2023-04-03T18:50:30;102468.31;;;7.33
29701;BMP280;57917;51.380;-0.176;2023-04-03T18:56:17;102467.94;;;7.17
29701;BMP280;57917;51.380;-0.176;2023-04-03T19:02:08;102477.81;;;7.15
29701;BMP280;57917;51.380;-0.176;2023-04-03T19:07:56;102497.31;;;7.07
29701;BMP280;57917;51.380;-0.176;2023-04-03T19:13:43;102507.63;;;7.09
29701;BMP280;57917;51.380;-0.176;2023-04-03T19:19:54;102503.41;;;7.08
29701;BMP280;57917;51.380;-0.176;2023-04-03T19:25:46;102503.38;;;6.95
29701;BMP280;57917;51.380;-0.176;2023-04-03T19:31:45;102513.72;;;6.96
29701;BMP280;57917;51.380;-0.176;2023-04-03T19:37:33;102515.13;;;6.79
29701;BMP280;57917;51.380;-0.176;2023-04-03T19:43:41;102516.34;;;7.03
29701;BMP280;57917;51.380;-0.176;2023-04-03T19:49:29;102520.00;;;6.82
29701;BMP280;57917;51.380;-0.176;2023-04-03T19:55:16;102520.38;;;6.66
29701;BMP280;57917;51.380;-0.176;2023-04-03T20:01:06;102515.34;;;6.84
29701;BMP280;57917;51.380;-0.176;2023-04-03T20:07:00;102517.75;;;6.66
29701;BMP280;57917;51.380;-0.176;2023-04-03T20:12:51;102514.09;;;6.54
29701;BMP280;57917;51.380;-0.176;2023-04-03T20:33:52;102536.13;;;6.53
29701;BMP280;57917;51.380;-0.176;2023-04-03T20:40:33;102533.16;;;6.63
29701;BMP280;57917;51.380;-0.176;2023-04-03T20:46:22;102525.44;;;6.61
29701;BMP280;57917;51.380;-0.176;2023-04-03T20:53:00;102520.13;;;6.55
29701;BMP280;57917;51.380;-0.176;2023-04-03T20:58:50;102519.50;;;6.33
29701;BMP280;57917;51.380;-0.176;2023-04-03T21:19:30;102525.63;;;5.93
29701;BMP280;57917;51.380;-0.176;2023-04-03T21:25:22;102517.94;;;5.91
29701;BMP280;57917;51.380;-0.176;2023-04-03T21:38:43;102515.72;;;5.95
29701;BMP280;57917;51.380;-0.176;2023-04-03T21:44:33;102511.78;;;5.78
29701;BMP280;57917;51.380;-0.176;2023-04-03T21:50:20;102515.00;;;5.67
29701;BMP280;57917;51.380;-0.176;2023-04-03T21:56:08;102518.47;;;5.80
29701;BMP280;57917;51.380;-0.176;2023-04-03T22:16:55;102527.00;;;5.55
29701;BMP280;57917;51.380;-0.176;2023-04-03T22:22:43;102533.97;;;5.69
29701;BMP280;57917;51.380;-0.176;2023-04-03T22:28:41;102523.97;;;5.85
29701;BMP280;57917;51.380;-0.176;2023-04-03T22:35:08;102521.56;;;5.56
29701;BMP280;57917;51.380;-0.176;2023-04-03T22:41:32;102518.63;;;5.72
29701;BMP280;57917;51.380;-0.176;2023-04-03T22:47:59;102523.84;;;5.66
29701;BMP280;57917;51.380;-0.176;2023-04-03T22:53:48;102532.88;;;5.57
29701;BMP280;57917;51.380;-0.176;2023-04-03T22:59:35;102541.47;;;5.37
29701;BMP280;57917;51.380;-0.176;2023-04-03T23:05:22;102539.44;;;5.39
29701;BMP280;57917;51.380;-0.176;2023-04-03T23:11:09;102541.41;;;5.31
29701;BMP280;57917;51.380;-0.176;2023-04-03T23:17:00;102547.22;;;5.05
29701;BMP280;57917;51.380;-0.176;2023-04-03T23:22:54;102563.25;;;5.10
29701;BMP280;57917;51.380;-0.176;2023-04-03T23:28:41;102546.25;;;4.85
29701;BMP280;57917;51.380;-0.176;2023-04-03T23:34:28;102556.41;;;4.95
29701;BMP280;57917;51.380;-0.176;2023-04-03T23:40:17;102559.59;;;4.90
29701;BMP280;57917;51.380;-0.176;2023-04-03T23:46:44;102561.19;;;4.85
29701;BMP280;57917;51.380;-0.176;2023-04-03T23:52:31;102553.59;;;4.96
29701;BMP280;57917;51.380;-0.176;2023-04-03T23:58:19;102548.09;;;4.91
